Time;durP1;ratioP1;P1;durP2;ratioP2;P2;SDS_P1;SDS_P2;PMS_P1;PMS_P2;Temp;Humidity;BMP_temperature;BMP_pressure;BME280_temperature;BME280_humidity;BME280_pressure;Samples;Min_cycle;Max_cycle;Signal;HPM_P1;HPM_P2
2023/07/12 00:01:18;;;;;;;;;;;26.80;57.20;;;;;;5093618;28;19983;-58
2023/07/12 00:03:45;;;;;;;;;;;26.80;57.20;;;;;;5093841;28;19924;-58
2023/07/12 00:06:17;;;;;;;;;;;26.80;57.20;;;;;;5093363;28;19938;-58
2023/07/12 00:08:44;;;;;;;;;;;26.80;57.20;;;;;;5093442;28;19930;-57
2023/07/12 00:11:16;;;;;;;;;;;26.80;57.20;;;;;;5093444;28;19967;-58
2023/07/12 00:13:43;;;;;;;;;;;26.70;57.10;;;;;;5093455;28;19924;-57
2023/07/12 00:16:22;;;;;;;;;;;26.80;57.10;;;;;;5093588;28;19924;-58
2023/07/12 00:18:50;;;;;;;;;;;26.80;57.10;;;;;;5092902;28;20404;-57
2023/07/12 00:21:22;;;;;;;;;;;26.70;57.10;;;;;;5093480;28;19928;-57
2023/07/12 00:23:52;;;;;;;;;;;26.80;57.10;;;;;;5092459;28;20426;-57
2023/07/12 00:26:21;;;;;;;;;;;26.80;57.10;;;;;;5092667;28;19924;-57
2023/07/12 00:28:48;;;;;;;;;;;26.80;57.10;;;;;;5093269;28;20022;-57
2023/07/12 00:31:15;;;;;;;;;;;26.80;57.10;;;;;;5093609;28;19971;-57
2023/07/12 00:33:42;;;;;;;;;;;26.80;57.10;;;;;;5092752;28;19977;-57
2023/07/12 00:36:12;;;;;;;;;;;26.80;57.10;;;;;;5097604;28;20057;-57
2023/07/12 00:38:40;;;;;;;;;;;26.80;57.10;;;;;;5096656;28;20015;-57
2023/07/12 00:41:26;;;;;;;;;;;26.70;57.10;;;;;;5097718;28;19928;-57
2023/07/12 00:44:04;;;;;;;;;;;26.70;57.10;;;;;;5097331;28;19924;-57
2023/07/12 00:46:38;;;;;;;;;;;26.70;57.10;;;;;;5096447;28;19972;-57
2023/07/12 00:49:08;;;;;;;;;;;26.70;57.10;;;;;;5097525;28;19947;-57
2023/07/12 00:51:48;;;;;;;;;;;26.70;57.10;;;;;;5097309;28;20318;-56
2023/07/12 00:54:16;;;;;;;;;;;26.70;57.10;;;;;;5096770;28;20019;-57
2023/07/12 00:56:43;;;;;;;;;;;26.70;57.10;;;;;;5095510;28;20330;-57
2023/07/12 00:59:14;;;;;;;;;;;26.70;57.20;;;;;;5097459;28;19985;-57
2023/07/12 01:01:41;;;;;;;;;;;26.70;57.20;;;;;;5097229;28;19967;-57
2023/07/12 01:04:08;;;;;;;;;;;26.70;57.20;;;;;;5096289;28;19978;-57
2023/07/12 01:06:35;;;;;;;;;;;26.70;57.20;;;;;;5096241;28;19924;-57
2023/07/12 01:09:07;;;;;;;;;;;26.70;57.20;;;;;;5097196;28;20039;-57
2023/07/12 01:11:34;;;;;;;;;;;26.70;57.20;;;;;;5095941;28;19979;-57
2023/07/12 01:14:00;;;;;;;;;;;26.70;57.20;;;;;;5096857;28;19924;-58
2023/07/12 01:16:27;;;;;;;;;;;26.70;57.30;;;;;;5096696;28;19927;-57
2023/07/12 01:18:54;;;;;;;;;;;26.70;57.30;;;;;;5096627;28;19924;-57
2023/07/12 01:21:24;;;;;;;;;;;26.70;57.30;;;;;;5096712;28;19992;-57
2023/07/12 01:23:51;;;;;;;;;;;26.70;57.40;;;;;;5096660;28;19928;-57
2023/07/12 01:26:23;;;;;;;;;;;26.70;57.30;;;;;;5096209;28;19928;-57
2023/07/12 01:28:52;;;;;;;;;;;26.70;57.30;;;;;;5096170;28;19924;-57
2023/07/12 01:31:19;;;;;;;;;;;26.70;57.30;;;;;;5096762;28;20010;-57
2023/07/12 01:33:46;;;;;;;;;;;26.70;57.40;;;;;;5096256;28;19924;-57
2023/07/12 01:36:13;;;;;;;;;;;26.70;57.30;;;;;;5095860;28;19931;-58
2023/07/12 01:38:40;;;;;;;;;;;26.60;57.30;;;;;;5096340;28;19969;-57
2023/07/12 01:41:08;;;;;;;;;;;26.60;57.30;;;;;;5096679;28;19928;-58
2023/07/12 01:43:35;;;;;;;;;;;26.60;57.30;;;;;;5096313;28;19962;-57
2023/07/12 01:46:02;;;;;;;;;;;26.60;57.30;;;;;;5095770;28;20323;-57
2023/07/12 01:48:29;;;;;;;;;;;26.60;57.30;;;;;;5095913;28;19924;-57
2023/07/12 01:50:56;;;;;;;;;;;26.60;57.30;;;;;;5095587;28;20047;-56
2023/07/12 01:53:23;;;;;;;;;;;26.60;57.30;;;;;;5096093;28;19931;-58
2023/07/12 01:55:50;;;;;;;;;;;26.60;57.80;;;;;;5095698;28;19928;-57
2023/07/12 01:58:17;;;;;;;;;;;26.60;57.30;;;;;;5095458;28;19932;-58
2023/07/12 02:00:44;;;;;;;;;;;26.60;57.30;;;;;;5095622;28;20463;-57
2023/07/12 02:03:11;;;;;;;;;;;26.60;57.30;;;;;;5096212;28;19959;-57
2023/07/12 02:05:38;;;;;;;;;;;26.60;57.30;;;;;;5095446;28;19934;-57
2023/07/12 02:08:05;;;;;;;;;;;26.70;57.30;;;;;;5095619;28;19975;-57
2023/07/12 02:10:32;;;;;;;;;;;26.60;57.20;;;;;;5095710;28;20019;-57
2023/07/12 02:12:59;;;;;;;;;;;26.60;57.20;;;;;;5095823;28;20020;-57
2023/07/12 02:15:26;;;;;;;;;;;26.60;57.20;;;;;;5095960;28;19924;-57
2023/07/12 02:17:53;;;;;;;;;;;26.60;57.20;;;;;;5095101;28;19934;-57
2023/07/12 02:20:20;;;;;;;;;;;26.60;57.20;;;;;;5095798;28;20300;-58
2023/07/12 02:22:47;;;;;;;;;;;26.70;57.20;;;;;;5095385;28;19928;-57
2023/07/12 02:25:14;;;;;;;;;;;26.70;57.20;;;;;;5095184;28;19981;-57
2023/07/12 02:27:44;;;;;;;;;;;26.60;57.10;;;;;;5095366;28;19985;-57
2023/07/12 02:30:12;;;;;;;;;;;26.70;57.20;;;;;;5095128;28;20330;-57
2023/07/12 02:32:39;;;;;;;;;;;26.70;57.20;;;;;;5093946;28;20023;-57
2023/07/12 02:35:06;;;;;;;;;;;26.70;57.20;;;;;;5095007;28;19931;-57
2023/07/12 02:37:33;;;;;;;;;;;26.60;57.10;;;;;;5095136;28;19931;-57
2023/07/12 02:40:00;;;;;;;;;;;26.60;57.10;;;;;;5095468;28;19924;-57
2023/07/12 02:42:30;;;;;;;;;;;26.60;57.10;;;;;;5094618;28;19924;-57
2023/07/12 02:44:57;;;;;;;;;;;26.60;57.10;;;;;;5095242;28;19930;-57
2023/07/12 02:47:24;;;;;;;;;;;26.60;57.20;;;;;;5094912;28;19967;-57
2023/07/12 02:49:51;;;;;;;;;;;26.60;57.20;;;;;;5094962;28;19935;-57
2023/07/12 02:52:18;;;;;;;;;;;26.60;57.20;;;;;;5094095;28;19934;-57
2023/07/12 02:54:45;;;;;;;;;;;26.60;57.10;;;;;;5094840;28;20006;-57
2023/07/12 02:57:12;;;;;;;;;;;26.60;57.20;;;;;;5093413;28;20414;-57
2023/07/12 02:59:39;;;;;;;;;;;26.60;57.70;;;;;;5094153;28;19924;-57
2023/07/12 03:02:07;;;;;;;;;;;26.60;57.20;;;;;;5093993;28;19924;-57
2023/07/12 03:04:34;;;;;;;;;;;26.60;57.20;;;;;;5093353;28;19969;-57
2023/07/12 03:07:02;;;;;;;;;;;26.60;57.20;;;;;;5093548;28;20007;-57
2023/07/12 03:09:29;;;;;;;;;;;26.60;57.20;;;;;;5094870;28;19947;-57
2023/07/12 03:11:56;;;;;;;;;;;26.60;57.20;;;;;;5094498;28;20003;-57
2023/07/12 03:14:23;;;;;;;;;;;26.60;57.20;;;;;;5094550;28;20002;-57
2023/07/12 03:16:50;;;;;;;;;;;26.60;57.20;;;;;;5094484;28;19978;-57
2023/07/12 03:19:17;;;;;;;;;;;26.60;57.20;;;;;;5093032;28;20028;-57
2023/07/12 03:21:45;;;;;;;;;;;26.60;57.20;;;;;;5093439;28;19970;-57
2023/07/12 03:24:13;;;;;;;;;;;26.60;57.70;;;;;;5093967;28;19971;-57
2023/07/12 03:26:40;;;;;;;;;;;26.60;57.20;;;;;;5092964;28;19975;-57
2023/07/12 03:29:07;;;;;;;;;;;26.60;57.10;;;;;;5094063;28;19924;-57
2023/07/12 03:31:34;;;;;;;;;;;26.60;57.10;;;;;;5093491;28;20407;-57
2023/07/12 03:34:01;;;;;;;;;;;26.60;57.60;;;;;;5097626;28;19928;-57
2023/07/12 03:36:29;;;;;;;;;;;26.60;57.10;;;;;;5114429;28;19986;-58
2023/07/12 03:38:57;;;;;;;;;;;26.60;57.00;;;;;;5107582;28;20071;-57
2023/07/12 03:41:24;;;;;;;;;;;26.60;57.00;;;;;;5099859;28;19967;-57
2023/07/12 03:43:51;;;;;;;;;;;26.60;57.00;;;;;;5110491;28;19927;-57
2023/07/12 03:46:18;;;;;;;;;;;26.70;57.10;;;;;;5112883;28;20026;-57
2023/07/12 03:48:45;;;;;;;;;;;26.60;56.90;;;;;;5113604;28;20018;-57
2023/07/12 03:51:14;;;;;;;;;;;26.70;56.90;;;;;;5114166;28;19924;-57
2023/07/12 03:53:40;;;;;;;;;;;26.70;56.90;;;;;;5113832;28;19950;-57
2023/07/12 03:56:08;;;;;;;;;;;26.70;56.90;;;;;;5105784;28;19982;-57
2023/07/12 03:58:36;;;;;;;;;;;26.70;56.80;;;;;;5114041;28;19966;-57
2023/07/12 04:01:05;;;;;;;;;;;26.80;56.80;;;;;;5112173;28;19974;-57
2023/07/12 04:03:32;;;;;;;;;;;26.80;57.30;;;;;;5097236;28;19924;-57
2023/07/12 04:05:59;;;;;;;;;;;26.80;56.70;;;;;;5087471;28;19932;-57
2023/07/12 04:08:26;;;;;;;;;;;26.90;56.70;;;;;;5092358;28;19924;-57
2023/07/12 04:10:54;;;;;;;;;;;26.90;56.60;;;;;;5087803;28;20384;-57
2023/07/12 04:13:22;;;;;;;;;;;26.90;56.50;;;;;;5077927;28;19950;-57
2023/07/12 04:15:53;;;;;;;;;;;26.90;56.40;;;;;;5083507;28;20027;-57
2023/07/12 04:18:20;;;;;;;;;;;26.90;56.40;;;;;;5102897;28;19928;-57
2023/07/12 04:20:47;;;;;;;;;;;27.00;56.40;;;;;;5081269;28;19924;-57
2023/07/12 04:23:14;;;;;;;;;;;27.00;56.30;;;;;;5100454;28;19930;-57
2023/07/12 04:25:42;;;;;;;;;;;27.00;56.20;;;;;;5109472;28;19976;-57
2023/07/12 04:28:09;;;;;;;;;;;27.00;56.10;;;;;;5098521;28;19928;-57
2023/07/12 04:30:36;;;;;;;;;;;27.00;56.10;;;;;;5073947;28;19978;-57
2023/07/12 04:33:04;;;;;;;;;;;27.00;56.10;;;;;;5072789;28;19931;-57
2023/07/12 04:35:36;;;;;;;;;;;27.10;56.60;;;;;;5078125;28;20437;-57
2023/07/12 04:38:03;;;;;;;;;;;27.00;56.20;;;;;;5099484;28;20310;-57
2023/07/12 04:40:30;;;;;;;;;;;26.90;56.40;;;;;;5113937;28;19963;-57
2023/07/12 04:42:57;;;;;;;;;;;26.90;56.80;;;;;;5113471;28;19923;-57
2023/07/12 04:45:24;;;;;;;;;;;26.70;57.00;;;;;;5112748;28;20014;-57
2023/07/12 04:47:51;;;;;;;;;;;26.50;57.00;;;;;;5092482;28;19928;-57
2023/07/12 04:50:18;;;;;;;;;;;26.30;56.40;;;;;;5086509;28;20276;-57
2023/07/12 04:52:45;;;;;;;;;;;26.10;56.20;;;;;;5085039;28;19960;-57
2023/07/12 04:55:20;;;;;;;;;;;25.90;55.70;;;;;;5093418;28;19930;-56
2023/07/12 04:57:47;;;;;;;;;;;25.60;55.20;;;;;;5092971;28;19923;-56
2023/07/12 05:00:15;;;;;;;;;;;25.30;55.10;;;;;;5089814;28;19963;-57
2023/07/12 05:02:43;;;;;;;;;;;25.10;55.20;;;;;;5090714;28;20432;-57
2023/07/12 05:05:11;;;;;;;;;;;24.90;55.00;;;;;;5090069;28;19931;-56
2023/07/12 05:07:39;;;;;;;;;;;24.60;54.80;;;;;;5078325;28;19993;-59
2023/07/12 05:10:06;;;;;;;;;;;24.40;55.00;;;;;;5092477;28;19924;-58
2023/07/12 05:12:34;;;;;;;;;;;24.20;55.00;;;;;;5092617;28;20377;-57
2023/07/12 05:15:02;;;;;;;;;;;23.90;54.80;;;;;;5087747;28;19946;-58
2023/07/12 05:17:31;;;;;;;;;;;23.70;55.60;;;;;;5080176;28;20288;-58
2023/07/12 05:19:58;;;;;;;;;;;23.50;55.40;;;;;;5079296;28;19931;-58
2023/07/12 05:22:25;;;;;;;;;;;23.30;55.70;;;;;;5079472;28;19989;-58
2023/07/12 05:24:52;;;;;;;;;;;23.10;56.10;;;;;;5087150;28;19932;-58
2023/07/12 05:27:19;;;;;;;;;;;22.90;55.80;;;;;;5070613;28;20380;-58
2023/07/12 05:29:47;;;;;;;;;;;22.80;55.50;;;;;;5070833;28;19924;-63
2023/07/12 05:32:14;;;;;;;;;;;22.60;55.60;;;;;;5070961;28;19968;-64
2023/07/12 05:34:41;;;;;;;;;;;22.50;55.60;;;;;;5073589;28;19971;-59
2023/07/12 05:37:10;;;;;;;;;;;22.40;56.10;;;;;;5080090;28;20011;-61
2023/07/12 05:39:37;;;;;;;;;;;22.30;55.90;;;;;;5074597;28;20432;-64
2023/07/12 05:42:04;;;;;;;;;;;22.20;56.10;;;;;;5079737;28;19950;-65
2023/07/12 05:44:31;;;;;;;;;;;22.00;56.50;;;;;;5081054;28;19985;-65
2023/07/12 05:46:58;;;;;;;;;;;22.00;57.60;;;;;;5079840;28;20019;-64
2023/07/12 05:49:26;;;;;;;;;;;21.90;57.10;;;;;;5073177;28;19929;-64
2023/07/12 05:51:53;;;;;;;;;;;21.80;56.60;;;;;;5080962;28;20364;-65
2023/07/12 05:54:21;;;;;;;;;;;21.80;56.70;;;;;;5079408;28;19932;-64
2023/07/12 05:56:48;;;;;;;;;;;21.80;56.40;;;;;;5077192;28;20003;-64
2023/07/12 05:59:14;;;;;;;;;;;21.80;56.70;;;;;;5073993;28;19932;-64
2023/07/12 06:01:42;;;;;;;;;;;21.80;56.50;;;;;;5073371;28;20434;-64
2023/07/12 06:04:11;;;;;;;;;;;21.80;56.40;;;;;;5076413;28;19936;-64
2023/07/12 06:06:38;;;;;;;;;;;21.70;56.00;;;;;;5072562;28;19932;-64
2023/07/12 06:09:05;;;;;;;;;;;21.70;56.40;;;;;;5075514;28;19939;-64
2023/07/12 06:11:32;;;;;;;;;;;21.70;56.40;;;;;;5080858;28;20027;-64
2023/07/12 06:13:59;;;;;;;;;;;21.70;56.40;;;;;;5071561;28;19932;-65
2023/07/12 06:16:27;;;;;;;;;;;21.70;56.50;;;;;;5079370;28;19978;-64
2023/07/12 06:18:54;;;;;;;;;;;21.60;56.60;;;;;;5081492;28;19929;-62
2023/07/12 06:21:21;;;;;;;;;;;21.60;57.20;;;;;;5083018;28;19924;-63
2023/07/12 06:23:49;;;;;;;;;;;21.60;56.50;;;;;;5077813;28;20388;-63
2023/07/12 06:26:16;;;;;;;;;;;21.50;57.10;;;;;;5070147;28;20016;-63
2023/07/12 06:28:44;;;;;;;;;;;21.40;57.20;;;;;;5074550;28;20342;-63
2023/07/12 06:31:11;;;;;;;;;;;21.40;58.00;;;;;;5068649;28;19933;-63
2023/07/12 06:33:39;;;;;;;;;;;21.40;56.90;;;;;;5074852;28;20315;-63
2023/07/12 06:36:06;;;;;;;;;;;21.30;58.10;;;;;;5068751;28;20377;-63
2023/07/12 06:38:33;;;;;;;;;;;21.40;58.40;;;;;;5065987;28;20361;-64
2023/07/12 06:41:01;;;;;;;;;;;21.30;58.70;;;;;;5069242;28;19932;-64
2023/07/12 06:43:28;;;;;;;;;;;21.40;58.40;;;;;;5073071;28;20444;-63
2023/07/12 06:45:55;;;;;;;;;;;21.40;58.40;;;;;;5072084;28;19932;-56
2023/07/12 06:48:23;;;;;;;;;;;21.40;58.80;;;;;;5072898;28;19932;-63
2023/07/12 06:50:50;;;;;;;;;;;21.50;58.90;;;;;;5074586;28;20432;-64
2023/07/12 06:53:18;;;;;;;;;;;21.40;58.50;;;;;;5074607;28;20007;-63
2023/07/12 06:55:45;;;;;;;;;;;21.50;58.60;;;;;;5072746;28;20274;-63
2023/07/12 06:58:12;;;;;;;;;;;21.50;58.30;;;;;;5076702;28;19977;-63
2023/07/12 07:00:43;;;;;;;;;;;21.60;58.30;;;;;;5074125;28;20381;-63
2023/07/12 07:03:10;;;;;;;;;;;21.50;58.30;;;;;;5071607;28;19936;-63
2023/07/12 07:05:38;;;;;;;;;;;21.60;57.90;;;;;;5071134;28;19963;-63
2023/07/12 07:08:06;;;;;;;;;;;21.70;58.20;;;;;;5074604;28;20296;-62
2023/07/12 07:10:33;;;;;;;;;;;21.70;58.10;;;;;;5076963;28;19931;-61
2023/07/12 07:13:00;;;;;;;;;;;21.70;57.80;;;;;;5076482;28;20392;-63
2023/07/12 07:15:28;;;;;;;;;;;21.80;57.90;;;;;;5076826;28;19928;-63
2023/07/12 07:17:55;;;;;;;;;;;21.80;57.70;;;;;;5078293;28;19928;-62
2023/07/12 07:20:22;;;;;;;;;;;21.80;58.00;;;;;;5074950;28;19924;-62
2023/07/12 07:22:49;;;;;;;;;;;21.80;57.90;;;;;;5085415;28;19958;-63
2023/07/12 07:25:16;;;;;;;;;;;21.80;57.80;;;;;;5074892;28;19928;-63
2023/07/12 07:27:48;;;;;;;;;;;21.80;57.80;;;;;;5074777;28;19928;-63
2023/07/12 07:30:16;;;;;;;;;;;21.80;57.70;;;;;;5076369;28;19986;-63
2023/07/12 07:32:44;;;;;;;;;;;21.90;58.20;;;;;;5080866;28;19925;-63
2023/07/12 07:35:11;;;;;;;;;;;21.80;58.00;;;;;;5075498;28;19928;-61
2023/07/12 07:37:39;;;;;;;;;;;21.80;57.40;;;;;;5081988;28;20011;-62
2023/07/12 07:40:07;;;;;;;;;;;21.80;58.30;;;;;;5083990;28;19924;-65
2023/07/12 07:42:36;;;;;;;;;;;21.80;58.20;;;;;;5072064;28;20114;-65
2023/07/12 07:45:03;;;;;;;;;;;21.90;57.90;;;;;;5077451;28;19924;-66
2023/07/12 07:47:30;;;;;;;;;;;21.80;58.20;;;;;;5071720;28;19936;-64
2023/07/12 07:49:57;;;;;;;;;;;21.80;58.00;;;;;;5077151;28;19931;-64
2023/07/12 07:52:24;;;;;;;;;;;21.90;58.10;;;;;;5073488;28;20023;-64
2023/07/12 07:54:52;;;;;;;;;;;21.90;58.20;;;;;;5079177;28;20011;-64
2023/07/12 07:57:18;;;;;;;;;;;21.90;58.00;;;;;;5070918;28;20347;-64
2023/07/12 07:59:46;;;;;;;;;;;21.90;58.20;;;;;;5080454;28;20015;-64
2023/07/12 08:02:13;;;;;;;;;;;22.00;58.00;;;;;;5073242;28;20380;-64
2023/07/12 08:04:41;;;;;;;;;;;22.00;57.80;;;;;;5077089;28;19993;-65
2023/07/12 08:07:10;;;;;;;;;;;22.10;57.40;;;;;;5076986;28;19934;-65
2023/07/12 08:09:37;;;;;;;;;;;22.00;58.00;;;;;;5077748;28;19959;-65
2023/07/12 08:12:06;;;;;;;;;;;22.10;58.00;;;;;;5077109;28;19986;-64
2023/07/12 08:14:33;;;;;;;;;;;22.10;58.00;;;;;;5082780;28;19950;-64
2023/07/12 08:17:01;;;;;;;;;;;22.10;57.60;;;;;;5083627;28;20350;-65
2023/07/12 08:19:28;;;;;;;;;;;22.10;57.60;;;;;;5082615;28;19932;-64
2023/07/12 08:21:55;;;;;;;;;;;22.10;57.50;;;;;;5073360;28;19939;-65
2023/07/12 08:24:22;;;;;;;;;;;22.10;57.50;;;;;;5076695;28;20442;-65
2023/07/12 08:26:49;;;;;;;;;;;22.20;57.80;;;;;;5076711;28;20028;-65
2023/07/12 08:29:33;;;;;;;;;;;22.20;57.30;;;;;;5075806;28;20416;-66
2023/07/12 08:32:00;;;;;;;;;;;22.20;57.30;;;;;;5079206;28;20023;-66
2023/07/12 08:34:30;;;;;;;;;;;22.20;57.50;;;;;;5074732;28;20032;-64
2023/07/12 08:36:57;;;;;;;;;;;22.30;57.30;;;;;;5073527;28;19993;-64
2023/07/12 08:39:24;;;;;;;;;;;22.30;57.30;;;;;;5081399;28;20330;-64
2023/07/12 08:41:51;;;;;;;;;;;22.30;57.40;;;;;;5074371;28;20031;-64
2023/07/12 08:44:19;;;;;;;;;;;22.30;57.40;;;;;;5071833;28;19924;-64
2023/07/12 08:46:49;;;;;;;;;;;22.30;57.60;;;;;;5074626;28;20396;-64
2023/07/12 08:49:17;;;;;;;;;;;22.20;57.20;;;;;;5071977;28;20467;-63
2023/07/12 08:51:45;;;;;;;;;;;22.30;57.30;;;;;;5069912;28;19944;-65
2023/07/12 08:54:22;;;;;;;;;;;22.30;57.20;;;;;;5077038;28;19927;-64
2023/07/12 08:57:08;;;;;;;;;;;22.30;57.50;;;;;;5074887;28;19938;-64
2023/07/12 08:59:35;;;;;;;;;;;22.30;57.40;;;;;;5084943;28;19978;-64
2023/07/12 09:02:11;;;;;;;;;;;22.20;57.70;;;;;;5076565;28;19924;-64
2023/07/12 09:04:38;;;;;;;;;;;22.20;57.60;;;;;;5073492;28;20015;-64
2023/07/12 09:07:05;;;;;;;;;;;22.20;57.90;;;;;;5074425;28;19925;-64
2023/07/12 09:09:39;;;;;;;;;;;22.20;57.70;;;;;;5081804;28;19944;-65
2023/07/12 09:12:20;;;;;;;;;;;22.10;57.80;;;;;;5073007;28;19977;-65
2023/07/12 09:14:54;;;;;;;;;;;22.10;58.10;;;;;;5080664;28;19968;-66
2023/07/12 09:17:23;;;;;;;;;;;22.10;58.20;;;;;;5077990;28;19936;-66
2023/07/12 09:19:50;;;;;;;;;;;22.00;58.30;;;;;;5078344;28;19939;-65
2023/07/12 09:22:18;;;;;;;;;;;22.00;58.00;;;;;;5076189;28;19932;-65
2023/07/12 09:24:51;;;;;;;;;;;22.00;58.40;;;;;;5083931;28;19932;-65
2023/07/12 09:27:20;;;;;;;;;;;22.00;58.20;;;;;;5079650;28;19944;-65
2023/07/12 09:29:47;;;;;;;;;;;22.00;58.10;;;;;;5077691;28;19934;-64
2023/07/12 09:32:19;;;;;;;;;;;22.00;58.20;;;;;;5089884;28;19928;-64
2023/07/12 09:34:47;;;;;;;;;;;22.00;58.30;;;;;;5085201;28;19928;-64
2023/07/12 09:37:15;;;;;;;;;;;22.00;58.60;;;;;;5082933;28;19978;-64
2023/07/12 09:39:55;;;;;;;;;;;22.00;58.80;;;;;;5079071;28;19925;-64
2023/07/12 09:42:24;;;;;;;;;;;22.00;58.70;;;;;;5074055;28;19932;-65
2023/07/12 09:44:51;;;;;;;;;;;21.90;59.00;;;;;;5085660;28;20195;-64
2023/07/12 09:47:31;;;;;;;;;;;21.90;58.50;;;;;;5081657;28;20404;-64
2023/07/12 09:50:06;;;;;;;;;;;21.90;59.10;;;;;;5080252;28;19924;-64
2023/07/12 09:52:44;;;;;;;;;;;21.90;59.00;;;;;;5078994;28;19925;-64
2023/07/12 09:55:19;;;;;;;;;;;22.00;59.00;;;;;;5074913;28;20027;-64
2023/07/12 09:57:50;;;;;;;;;;;22.10;59.00;;;;;;5075741;28;19971;-64
2023/07/12 10:00:23;;;;;;;;;;;22.10;58.90;;;;;;5075306;28;19933;-66
2023/07/12 10:03:13;;;;;;;;;;;22.10;58.70;;;;;;5072510;28;19983;-65
2023/07/12 10:05:44;;;;;;;;;;;22.10;58.70;;;;;;5073715;28;20003;-65
2023/07/12 10:08:15;;;;;;;;;;;22.10;58.70;;;;;;5080980;28;19967;-65
2023/07/12 10:10:45;;;;;;;;;;;22.20;58.70;;;;;;5079815;28;20388;-64
2023/07/12 10:13:32;;;;;;;;;;;22.20;58.50;;;;;;5074464;28;20015;-65
2023/07/12 10:16:00;;;;;;;;;;;22.20;58.60;;;;;;5078899;28;19930;-65
2023/07/12 10:18:29;;;;;;;;;;;22.20;58.50;;;;;;5078985;28;19956;-65
2023/07/12 10:20:57;;;;;;;;;;;22.30;58.50;;;;;;5079886;28;19931;-65
2023/07/12 10:23:28;;;;;;;;;;;22.30;59.00;;;;;;5079069;28;19928;-65
2023/07/12 10:26:00;;;;;;;;;;;22.30;58.50;;;;;;5078126;28;19968;-64
2023/07/12 10:28:41;;;;;;;;;;;22.30;58.60;;;;;;5083034;28;20278;-64
2023/07/12 10:31:14;;;;;;;;;;;22.30;59.30;;;;;;5078174;28;19971;-64
2023/07/12 10:33:44;;;;;;;;;;;22.20;58.80;;;;;;5079718;28;19981;-64
2023/07/12 10:36:16;;;;;;;;;;;22.20;58.80;;;;;;5080090;28;19928;-64
2023/07/12 10:38:43;;;;;;;;;;;22.20;58.80;;;;;;5079821;28;20000;-64
2023/07/12 10:41:18;;;;;;;;;;;22.30;58.90;;;;;;5077922;28;20035;-65
2023/07/12 10:43:50;;;;;;;;;;;22.30;59.20;;;;;;5079740;28;19931;-65
2023/07/12 10:46:30;;;;;;;;;;;22.30;59.10;;;;;;5078510;28;19924;-65
2023/07/12 10:48:58;;;;;;;;;;;22.30;58.60;;;;;;5080409;28;19928;-64
2023/07/12 10:51:33;;;;;;;;;;;22.40;58.90;;;;;;5078299;28;19932;-65
2023/07/12 10:54:02;;;;;;;;;;;22.40;59.20;;;;;;5079004;28;20334;-65
2023/07/12 10:56:37;;;;;;;;;;;22.40;59.30;;;;;;5074524;28;19974;-62
2023/07/12 10:59:24;;;;;;;;;;;22.40;59.70;;;;;;5077551;28;19970;-63
2023/07/12 11:01:52;;;;;;;;;;;22.40;59.70;;;;;;5084832;28;19931;-62
2023/07/12 11:04:35;;;;;;;;;;;22.40;60.20;;;;;;5078352;28;19924;-62
2023/07/12 11:07:28;;;;;;;;;;;22.50;60.10;;;;;;5079202;28;19977;-63
2023/07/12 11:10:04;;;;;;;;;;;22.50;60.30;;;;;;5081703;28;19959;-63
2023/07/12 11:12:45;;;;;;;;;;;22.60;60.00;;;;;;5087919;28;19955;-64
2023/07/12 11:15:18;;;;;;;;;;;22.60;59.80;;;;;;5081158;28;20066;-64
2023/07/12 11:17:51;;;;;;;;;;;22.60;59.90;;;;;;5075873;28;20202;-62
2023/07/12 11:20:21;;;;;;;;;;;22.60;59.20;;;;;;5075461;28;19932;-61
2023/07/12 11:22:51;;;;;;;;;;;22.60;59.60;;;;;;5077062;28;19972;-62
2023/07/12 11:25:22;;;;;;;;;;;22.60;59.20;;;;;;5074618;28;20022;-62
2023/07/12 11:27:54;;;;;;;;;;;22.60;59.30;;;;;;5077974;28;19930;-63
2023/07/12 11:30:26;;;;;;;;;;;22.70;59.60;;;;;;5075860;28;19979;-57
2023/07/12 11:33:15;;;;;;;;;;;22.70;59.50;;;;;;5070232;28;19924;-51
2023/07/12 11:36:02;;;;;;;;;;;22.70;59.30;;;;;;5072065;28;19932;-55
2023/07/12 11:38:31;;;;;;;;;;;22.70;59.00;;;;;;5076054;28;19983;-55
2023/07/12 11:41:01;;;;;;;;;;;22.70;59.30;;;;;;5077701;28;19924;-56
2023/07/12 11:43:32;;;;;;;;;;;22.70;59.40;;;;;;5077205;28;19946;-57
2023/07/12 11:46:01;;;;;;;;;;;22.70;59.30;;;;;;5079535;28;19924;-55
2023/07/12 11:48:30;;;;;;;;;;;22.70;58.70;;;;;;5071235;28;19932;-54
2023/07/12 11:50:59;;;;;;;;;;;22.70;58.90;;;;;;5077647;28;19932;-54
2023/07/12 11:53:27;;;;;;;;;;;22.70;59.30;;;;;;5082069;28;20068;-56
2023/07/12 11:55:55;;;;;;;;;;;22.70;58.90;;;;;;5074434;28;19959;-55
2023/07/12 11:58:23;;;;;;;;;;;22.70;58.90;;;;;;5075959;28;19936;-53
2023/07/12 12:00:53;;;;;;;;;;;22.70;59.10;;;;;;5074019;28;19938;-56
2023/07/12 12:03:20;;;;;;;;;;;22.70;59.10;;;;;;5081388;28;19932;-57
2023/07/12 12:05:48;;;;;;;;;;;22.70;59.60;;;;;;5078609;28;19924;-52
2023/07/12 12:08:24;;;;;;;;;;;22.70;59.70;;;;;;5076575;28;19993;-56
2023/07/12 12:10:51;;;;;;;;;;;22.80;59.30;;;;;;5074444;28;19993;-54
2023/07/12 12:13:27;;;;;;;;;;;22.80;59.50;;;;;;5076370;28;19968;-55
2023/07/12 12:16:01;;;;;;;;;;;22.80;59.30;;;;;;5073762;28;19924;-56
2023/07/12 12:18:33;;;;;;;;;;;22.90;59.30;;;;;;5077575;28;20288;-54
2023/07/12 12:21:15;;;;;;;;;;;22.90;59.20;;;;;;5070770;28;19949;-52
2023/07/12 12:23:49;;;;;;;;;;;23.00;59.50;;;;;;5075772;28;19932;-55
2023/07/12 12:26:19;;;;;;;;;;;23.00;59.30;;;;;;5072834;28;19939;-51
2023/07/12 12:28:51;;;;;;;;;;;23.00;59.10;;;;;;5073909;28;19954;-57
2023/07/12 12:31:20;;;;;;;;;;;23.10;58.90;;;;;;5083498;28;19978;-57
2023/07/12 12:33:52;;;;;;;;;;;23.10;58.80;;;;;;5078549;28;19924;-57
2023/07/12 12:36:23;;;;;;;;;;;23.10;58.80;;;;;;5083440;28;19932;-57
2023/07/12 12:38:59;;;;;;;;;;;23.10;58.60;;;;;;5084018;28;20396;-58
2023/07/12 12:41:34;;;;;;;;;;;23.10;58.50;;;;;;5079006;28;19978;-53
2023/07/12 12:44:15;;;;;;;;;;;23.10;58.50;;;;;;5086210;28;19971;-54
2023/07/12 12:46:43;;;;;;;;;;;23.10;58.60;;;;;;5085666;28;20360;-52
2023/07/12 12:49:19;;;;;;;;;;;23.10;58.60;;;;;;5088771;28;19924;-56
2023/07/12 12:51:50;;;;;;;;;;;23.10;58.50;;;;;;5077648;28;19950;-58
2023/07/12 12:54:21;;;;;;;;;;;23.10;58.30;;;;;;5078514;28;19951;-56
2023/07/12 12:56:49;;;;;;;;;;;23.10;58.20;;;;;;5081714;28;20019;-56
2023/07/12 12:59:20;;;;;;;;;;;23.20;58.00;;;;;;5085087;28;19924;-57
2023/07/12 13:01:50;;;;;;;;;;;23.10;57.90;;;;;;5077460;28;19929;-57
2023/07/12 13:04:20;;;;;;;;;;;23.10;57.90;;;;;;5086460;28;20023;-59
2023/07/12 13:06:50;;;;;;;;;;;23.10;57.90;;;;;;5079966;28;19971;-58
2023/07/12 13:09:28;;;;;;;;;;;23.00;58.10;;;;;;5079628;28;20380;-58
2023/07/12 13:11:58;;;;;;;;;;;23.00;57.90;;;;;;5076856;28;20411;-59
2023/07/12 13:14:28;;;;;;;;;;;23.00;58.30;;;;;;5081743;28;20007;-58
2023/07/12 13:16:58;;;;;;;;;;;23.00;58.00;;;;;;5078702;28;19932;-59
2023/07/12 13:19:29;;;;;;;;;;;23.00;57.80;;;;;;5086608;28;19923;-55
2023/07/12 13:22:04;;;;;;;;;;;23.00;58.40;;;;;;5075731;28;20351;-58
2023/07/12 13:24:32;;;;;;;;;;;23.00;58.70;;;;;;5082667;28;19962;-57
2023/07/12 13:26:59;;;;;;;;;;;23.00;58.40;;;;;;5080444;28;19927;-58
2023/07/12 13:29:26;;;;;;;;;;;23.10;58.30;;;;;;5075941;28;20023;-58
2023/07/12 13:31:53;;;;;;;;;;;23.00;58.20;;;;;;5080340;28;19932;-57
2023/07/12 13:34:20;;;;;;;;;;;23.00;58.10;;;;;;5084652;28;19932;-53
2023/07/12 13:36:50;;;;;;;;;;;23.00;58.10;;;;;;5078845;28;19932;-58
2023/07/12 13:39:19;;;;;;;;;;;23.00;58.40;;;;;;5076211;28;19976;-59
2023/07/12 13:41:49;;;;;;;;;;;22.90;58.20;;;;;;5079662;28;19924;-58
2023/07/12 13:44:19;;;;;;;;;;;23.00;58.70;;;;;;5079673;28;20023;-58
2023/07/12 13:46:49;;;;;;;;;;;23.10;61.40;;;;;;5082725;28;19931;-56
2023/07/12 13:49:16;;;;;;;;;;;23.30;60.90;;;;;;5079012;28;19936;-58
2023/07/12 13:51:45;;;;;;;;;;;23.50;60.40;;;;;;5085916;28;19935;-58
2023/07/12 13:54:12;;;;;;;;;;;23.70;59.90;;;;;;5081679;28;19947;-58
2023/07/12 13:56:39;;;;;;;;;;;23.80;59.50;;;;;;5088619;28;20304;-54
2023/07/12 13:59:09;;;;;;;;;;;23.90;59.10;;;;;;5077169;28;19923;-55
2023/07/12 14:01:40;;;;;;;;;;;24.00;59.00;;;;;;5079276;28;20011;-57
2023/07/12 14:04:15;;;;;;;;;;;24.10;60.90;;;;;;5080083;28;19936;-56
2023/07/12 14:06:46;;;;;;;;;;;24.20;67.40;;;;;;5077217;28;20011;-56
2023/07/12 14:09:19;;;;;;;;;;;24.40;69.50;;;;;;5082547;28;20369;-58
2023/07/12 14:11:47;;;;;;;;;;;24.60;70.40;;;;;;5076049;28;19925;-58
2023/07/12 14:14:14;;;;;;;;;;;24.70;70.60;;;;;;5082681;28;19942;-58
2023/07/12 14:16:41;;;;;;;;;;;24.90;70.60;;;;;;5072356;28;20399;-55
2023/07/12 14:19:09;;;;;;;;;;;25.10;70.60;;;;;;5081420;28;19924;-58
2023/07/12 14:21:36;;;;;;;;;;;25.20;70.50;;;;;;5084037;28;20284;-57
2023/07/12 14:24:04;;;;;;;;;;;25.40;70.20;;;;;;5080374;28;20026;-58
2023/07/12 14:26:31;;;;;;;;;;;25.50;69.90;;;;;;5087284;28;19978;-58
2023/07/12 14:28:58;;;;;;;;;;;25.60;69.70;;;;;;5077712;28;20014;-58